WMT485 LROP-LGAV
Flight info
| Callsign | WMT485 |
|---|---|
| Flight time | 1h 2m |
| Altitude | 35000 |
| Route | POLUN DCT TIMUR N181 NIKTI DCT KOROS/N0445F320 UT162 NEVRA |
| Aircraft | A321/M-SDE3FGHIRWY/LB1 |
Departure
| Time | 2026-05-04 18:40 |
|---|---|
| Airport | Bucharest Henri Coandă International Airport (LROP) |
Arrival
| Time | 2026-05-04 19:43 |
|---|---|
| Airport | Athens Eleftherios Venizelos International Airport (LGAV) |
| Time | Latitude | Longitude | Altitude | Speed | Heading |
|---|---|---|---|---|---|
| 2026-05-04 18:19 | 44.57132 | 26.08005 | 321 ft | 0 kts | 174° |
| 2026-05-04 18:32 | 44.57148 | 26.08003 | 321 ft | 4 kts | 174° |
| 2026-05-04 18:32 | 44.57173 | 26.07999 | 321 ft | 2 kts | 174° |
| 2026-05-04 18:32 | 44.57191 | 26.07994 | 322 ft | 4 kts | 123° |
| 2026-05-04 18:32 | 44.57195 | 26.07983 | 320 ft | 0 kts | 87° |
| 2026-05-04 18:35 | 44.57195 | 26.07984 | 320 ft | 0 kts | 87° |
| 2026-05-04 18:35 | 44.57196 | 26.08003 | 322 ft | 4 kts | 84° |
| 2026-05-04 18:35 | 44.57199 | 26.08044 | 322 ft | 5 kts | 84° |
| 2026-05-04 18:35 | 44.57204 | 26.08097 | 322 ft | 6 kts | 84° |
| 2026-05-04 18:36 | 44.57208 | 26.08163 | 321 ft | 8 kts | 84° |
| 2026-05-04 18:36 | 44.57215 | 26.08252 | 323 ft | 10 kts | 84° |
| 2026-05-04 18:36 | 44.57222 | 26.08353 | 323 ft | 11 kts | 84° |
| 2026-05-04 18:36 | 44.57230 | 26.08462 | 323 ft | 10 kts | 84° |
| 2026-05-04 18:37 | 44.57283 | 26.08498 | 323 ft | 10 kts | 354° |
| 2026-05-04 18:37 | 44.57357 | 26.08487 | 323 ft | 11 kts | 354° |
| 2026-05-04 18:37 | 44.57438 | 26.08475 | 322 ft | 12 kts | 355° |
| 2026-05-04 18:37 | 44.57524 | 26.08464 | 323 ft | 13 kts | 354° |
| 2026-05-04 18:38 | 44.57614 | 26.08452 | 323 ft | 13 kts | 354° |
| 2026-05-04 18:38 | 44.57655 | 26.08450 | 323 ft | 4 kts | 15° |
| 2026-05-04 18:38 | 44.57666 | 26.08481 | 323 ft | 4 kts | 82° |
| 2026-05-04 18:38 | 44.57667 | 26.08492 | 323 ft | 0 kts | 86° |
| 2026-05-04 18:39 | 44.57674 | 26.08596 | 324 ft | 40 kts | 84° |
| 2026-05-04 18:39 | 44.57728 | 26.09333 | 322 ft | 110 kts | 84° |
| 2026-05-04 18:40 | 44.57830 | 26.10678 | 323 ft | 164 kts | 84° |
| 2026-05-04 18:40 | 44.57961 | 26.12326 | 801 ft | 170 kts | 83° |
| 2026-05-04 18:40 | 44.58085 | 26.13955 | 1542 ft | 168 kts | 83° |
| 2026-05-04 18:40 | 44.58209 | 26.15592 | 2155 ft | 171 kts | 82° |
| 2026-05-04 18:41 | 44.58342 | 26.17328 | 2416 ft | 189 kts | 82° |
| 2026-05-04 18:41 | 44.58491 | 26.19281 | 2590 ft | 213 kts | 82° |
| 2026-05-04 18:41 | 44.58636 | 26.21462 | 2728 ft | 237 kts | 88° |
| 2026-05-04 18:41 | 44.58219 | 26.23800 | 2981 ft | 261 kts | 120° |
| 2026-05-04 18:42 | 44.56960 | 26.25632 | 3566 ft | 271 kts | 148° |
| 2026-05-04 18:42 | 44.55163 | 26.26465 | 4272 ft | 278 kts | 176° |
| 2026-05-04 18:42 | 44.53244 | 26.26053 | 4991 ft | 283 kts | 204° |
| 2026-05-04 18:42 | 44.51634 | 26.24469 | 5639 ft | 287 kts | 232° |
| 2026-05-04 18:43 | 44.50649 | 26.22049 | 6266 ft | 288 kts | 253° |
| 2026-05-04 18:43 | 44.49988 | 26.19386 | 6915 ft | 292 kts | 256° |
| 2026-05-04 18:43 | 44.49361 | 26.16686 | 7590 ft | 295 kts | 256° |
| 2026-05-04 18:43 | 44.48737 | 26.13931 | 8293 ft | 299 kts | 256° |
| 2026-05-04 18:44 | 44.48108 | 26.11134 | 9000 ft | 303 kts | 257° |
| 2026-05-04 18:44 | 44.47894 | 26.10181 | 9234 ft | 304 kts | 257° |
| 2026-05-04 18:44 | 44.46828 | 26.05434 | 10243 ft | 317 kts | 256° |
| 2026-05-04 18:44 | 44.46140 | 26.02391 | 10393 ft | 340 kts | 253° |
| 2026-05-04 18:45 | 44.45022 | 25.99343 | 10525 ft | 364 kts | 242° |
| 2026-05-04 18:45 | 44.43704 | 25.96177 | 10707 ft | 382 kts | 242° |
| 2026-05-04 18:45 | 44.42335 | 25.92931 | 11230 ft | 389 kts | 241° |
| 2026-05-04 18:45 | 44.40955 | 25.89684 | 11822 ft | 393 kts | 241° |
| 2026-05-04 18:46 | 44.39546 | 25.86376 | 12427 ft | 397 kts | 241° |
| 2026-05-04 18:46 | 44.38122 | 25.83032 | 13061 ft | 401 kts | 241° |
| 2026-05-04 18:46 | 44.36689 | 25.79660 | 13684 ft | 405 kts | 240° |
| 2026-05-04 18:46 | 44.35259 | 25.76285 | 14252 ft | 408 kts | 240° |
| 2026-05-04 18:47 | 44.33805 | 25.72854 | 14823 ft | 411 kts | 240° |
| 2026-05-04 18:47 | 44.32341 | 25.69406 | 15403 ft | 415 kts | 240° |
| 2026-05-04 18:47 | 44.30861 | 25.65930 | 15990 ft | 418 kts | 240° |
| 2026-05-04 18:47 | 44.29368 | 25.62430 | 16576 ft | 421 kts | 240° |
| 2026-05-04 18:48 | 44.27863 | 25.58904 | 17158 ft | 424 kts | 240° |
| 2026-05-04 18:48 | 44.26350 | 25.55359 | 17743 ft | 427 kts | 240° |
| 2026-05-04 18:48 | 44.24826 | 25.51792 | 18318 ft | 430 kts | 240° |
| 2026-05-04 18:48 | 44.23287 | 25.48190 | 18851 ft | 431 kts | 240° |
| 2026-05-04 18:49 | 44.21749 | 25.44594 | 19407 ft | 431 kts | 240° |
| 2026-05-04 18:49 | 44.20227 | 25.41047 | 19949 ft | 432 kts | 240° |
| 2026-05-04 18:49 | 44.18679 | 25.37447 | 20471 ft | 433 kts | 240° |
| 2026-05-04 18:49 | 44.17123 | 25.33836 | 20989 ft | 434 kts | 240° |
| 2026-05-04 18:50 | 44.15567 | 25.30226 | 21482 ft | 435 kts | 240° |
| 2026-05-04 18:50 | 44.13997 | 25.26590 | 21980 ft | 436 kts | 240° |
| 2026-05-04 18:50 | 44.12430 | 25.22960 | 22494 ft | 437 kts | 241° |
| 2026-05-04 18:50 | 44.10878 | 25.19373 | 22988 ft | 437 kts | 241° |
| 2026-05-04 18:51 | 44.09303 | 25.15740 | 23457 ft | 439 kts | 241° |
| 2026-05-04 18:51 | 44.07723 | 25.12102 | 23873 ft | 440 kts | 241° |
| 2026-05-04 18:51 | 44.06137 | 25.08450 | 24253 ft | 441 kts | 241° |
| 2026-05-04 18:51 | 44.04547 | 25.04791 | 24633 ft | 443 kts | 240° |
| 2026-05-04 18:52 | 44.03492 | 25.02361 | 24892 ft | 444 kts | 240° |
| 2026-05-04 18:52 | 44.01895 | 24.98682 | 25243 ft | 445 kts | 240° |
| 2026-05-04 18:52 | 43.99760 | 24.93773 | 25721 ft | 447 kts | 240° |
| 2026-05-04 18:52 | 43.98668 | 24.91267 | 25965 ft | 448 kts | 240° |
| 2026-05-04 18:53 | 43.97049 | 24.87563 | 26314 ft | 450 kts | 240° |
| 2026-05-04 18:53 | 43.95423 | 24.83845 | 26654 ft | 451 kts | 240° |
| 2026-05-04 18:53 | 43.93792 | 24.80120 | 26997 ft | 453 kts | 240° |
| 2026-05-04 18:53 | 43.92170 | 24.76427 | 27330 ft | 454 kts | 240° |
| 2026-05-04 18:54 | 43.90515 | 24.72672 | 27674 ft | 456 kts | 240° |
| 2026-05-04 18:54 | 43.88859 | 24.68917 | 28029 ft | 457 kts | 239° |
| 2026-05-04 18:54 | 43.87192 | 24.65141 | 28365 ft | 459 kts | 239° |
| 2026-05-04 18:54 | 43.85527 | 24.61369 | 28740 ft | 459 kts | 239° |
| 2026-05-04 18:55 | 43.83861 | 24.57602 | 29218 ft | 457 kts | 239° |
| 2026-05-04 18:55 | 43.80467 | 24.50235 | 30113 ft | 454 kts | 230° |
| 2026-05-04 18:55 | 43.78170 | 24.47229 | 30474 ft | 454 kts | 216° |
| 2026-05-04 18:56 | 43.75392 | 24.45171 | 30802 ft | 454 kts | 200° |
| 2026-05-04 18:56 | 43.72306 | 24.44195 | 31118 ft | 456 kts | 187° |
| 2026-05-04 18:56 | 43.69179 | 24.43709 | 31441 ft | 456 kts | 187° |
| 2026-05-04 18:56 | 43.66028 | 24.43232 | 31758 ft | 456 kts | 187° |
| 2026-05-04 18:57 | 43.62859 | 24.42757 | 32069 ft | 457 kts | 187° |
| 2026-05-04 18:57 | 43.59692 | 24.42287 | 32401 ft | 456 kts | 187° |
| 2026-05-04 18:57 | 43.56530 | 24.41818 | 32742 ft | 456 kts | 187° |
| 2026-05-04 18:57 | 43.53375 | 24.41349 | 33091 ft | 455 kts | 187° |
| 2026-05-04 18:58 | 43.50223 | 24.40877 | 33417 ft | 455 kts | 187° |
| 2026-05-04 18:58 | 43.47106 | 24.40406 | 33746 ft | 455 kts | 187° |
| 2026-05-04 18:58 | 43.43947 | 24.39924 | 34057 ft | 454 kts | 187° |
| 2026-05-04 18:58 | 43.40797 | 24.39445 | 34332 ft | 454 kts | 187° |
| 2026-05-04 18:59 | 43.37655 | 24.38970 | 34580 ft | 455 kts | 187° |
| 2026-05-04 18:59 | 43.34547 | 24.38500 | 34816 ft | 455 kts | 187° |
| 2026-05-04 18:59 | 43.31392 | 24.38026 | 35034 ft | 456 kts | 187° |
| 2026-05-04 18:59 | 43.28227 | 24.37553 | 35109 ft | 458 kts | 187° |
| 2026-05-04 19:00 | 43.21873 | 24.36605 | 35128 ft | 459 kts | 187° |
| 2026-05-04 19:00 | 43.15519 | 24.35644 | 35130 ft | 459 kts | 187° |
| 2026-05-04 19:01 | 43.09192 | 24.34684 | 35130 ft | 460 kts | 187° |
| 2026-05-04 19:01 | 43.02823 | 24.33731 | 35133 ft | 460 kts | 187° |
| 2026-05-04 19:02 | 42.96441 | 24.32779 | 35139 ft | 461 kts | 187° |
| 2026-05-04 19:02 | 42.90056 | 24.31837 | 35140 ft | 461 kts | 187° |
| 2026-05-04 19:03 | 42.83698 | 24.30908 | 35140 ft | 462 kts | 187° |
| 2026-05-04 19:03 | 42.77291 | 24.29960 | 35148 ft | 462 kts | 187° |
| 2026-05-04 19:04 | 42.70879 | 24.29008 | 35136 ft | 463 kts | 187° |
| 2026-05-04 19:04 | 42.64514 | 24.28073 | 35141 ft | 462 kts | 187° |
| 2026-05-04 19:05 | 42.58113 | 24.27132 | 35140 ft | 463 kts | 187° |
| 2026-05-04 19:05 | 42.51704 | 24.26186 | 35125 ft | 463 kts | 187° |
| 2026-05-04 19:06 | 42.45327 | 24.25247 | 35130 ft | 462 kts | 187° |
| 2026-05-04 19:06 | 42.38926 | 24.24309 | 35130 ft | 462 kts | 187° |
| 2026-05-04 19:07 | 42.32536 | 24.23375 | 35124 ft | 462 kts | 187° |
| 2026-05-04 19:07 | 42.26130 | 24.22439 | 35122 ft | 462 kts | 187° |
| 2026-05-04 19:08 | 42.19762 | 24.21530 | 35125 ft | 462 kts | 187° |
| 2026-05-04 19:08 | 42.13353 | 24.20615 | 35125 ft | 462 kts | 187° |
| 2026-05-04 19:09 | 42.06970 | 24.19682 | 35122 ft | 463 kts | 187° |
| 2026-05-04 19:09 | 42.00548 | 24.18744 | 35128 ft | 462 kts | 187° |
| 2026-05-04 19:10 | 41.94138 | 24.17819 | 35125 ft | 463 kts | 187° |
| 2026-05-04 19:10 | 41.87735 | 24.16907 | 35127 ft | 464 kts | 187° |
| 2026-05-04 19:11 | 41.81298 | 24.15990 | 35132 ft | 465 kts | 187° |
| 2026-05-04 19:11 | 41.74862 | 24.15058 | 35134 ft | 465 kts | 187° |
| 2026-05-04 19:12 | 41.65207 | 24.13672 | 35133 ft | 465 kts | 187° |
| 2026-05-04 19:13 | 41.58813 | 24.12765 | 35136 ft | 465 kts | 187° |
| 2026-05-04 19:13 | 41.52355 | 24.13076 | 35132 ft | 465 kts | 168° |
| 2026-05-04 19:14 | 41.46024 | 24.14755 | 35122 ft | 466 kts | 169° |
| 2026-05-04 19:14 | 41.39652 | 24.16421 | 35118 ft | 466 kts | 169° |
| 2026-05-04 19:15 | 41.33272 | 24.18115 | 35113 ft | 466 kts | 169° |
| 2026-05-04 19:15 | 41.24169 | 24.20542 | 35107 ft | 467 kts | 168° |
| 2026-05-04 19:16 | 40.98658 | 24.27280 | 35093 ft | 466 kts | 169° |
| 2026-05-04 19:16 | 40.73176 | 24.33974 | 35076 ft | 465 kts | 169° |
| 2026-05-04 19:17 | 40.47746 | 24.40594 | 35079 ft | 467 kts | 168° |
| 2026-05-04 19:17 | 40.22184 | 24.47173 | 35085 ft | 468 kts | 169° |
| 2026-05-04 19:18 | 39.96765 | 24.53709 | 35093 ft | 468 kts | 169° |
| 2026-05-04 19:18 | 39.88381 | 24.55837 | 35097 ft | 468 kts | 169° |
| 2026-05-04 19:19 | 39.81985 | 24.57449 | 35100 ft | 468 kts | 169° |
| 2026-05-04 19:19 | 39.75589 | 24.59068 | 35100 ft | 468 kts | 169° |
| 2026-05-04 19:20 | 39.69194 | 24.60699 | 35103 ft | 468 kts | 169° |
| 2026-05-04 19:20 | 39.62835 | 24.62316 | 35108 ft | 468 kts | 169° |
| 2026-05-04 19:21 | 39.56440 | 24.63930 | 35112 ft | 468 kts | 169° |
| 2026-05-04 19:21 | 39.50042 | 24.65539 | 35112 ft | 468 kts | 169° |
| 2026-05-04 19:22 | 39.43649 | 24.67146 | 35108 ft | 468 kts | 169° |
| 2026-05-04 19:22 | 39.37235 | 24.68756 | 35109 ft | 468 kts | 169° |
| 2026-05-04 19:23 | 39.30862 | 24.70351 | 35111 ft | 468 kts | 169° |
| 2026-05-04 19:23 | 39.24471 | 24.71939 | 35116 ft | 468 kts | 169° |
| 2026-05-04 19:24 | 39.18051 | 24.73538 | 35125 ft | 467 kts | 169° |
| 2026-05-04 19:24 | 39.14895 | 24.74326 | 34908 ft | 465 kts | 169° |
| 2026-05-04 19:24 | 39.11722 | 24.75119 | 34673 ft | 463 kts | 169° |
| 2026-05-04 19:24 | 39.08564 | 24.75909 | 34435 ft | 461 kts | 169° |
| 2026-05-04 19:25 | 39.05422 | 24.76695 | 34199 ft | 459 kts | 168° |
| 2026-05-04 19:25 | 39.02296 | 24.77476 | 33947 ft | 456 kts | 169° |
| 2026-05-04 19:25 | 38.99188 | 24.78251 | 33667 ft | 453 kts | 169° |
| 2026-05-04 19:25 | 38.96068 | 24.78659 | 33200 ft | 448 kts | 183° |
| 2026-05-04 19:26 | 38.93029 | 24.77939 | 32709 ft | 443 kts | 201° |
| 2026-05-04 19:26 | 38.90324 | 24.76125 | 32202 ft | 438 kts | 218° |
| 2026-05-04 19:26 | 38.87982 | 24.73705 | 31658 ft | 436 kts | 221° |
| 2026-05-04 19:26 | 38.85675 | 24.71192 | 31142 ft | 434 kts | 221° |
| 2026-05-04 19:27 | 38.83381 | 24.68682 | 30642 ft | 431 kts | 221° |
| 2026-05-04 19:27 | 38.81091 | 24.66174 | 30183 ft | 429 kts | 220° |
| 2026-05-04 19:27 | 38.78856 | 24.63726 | 29640 ft | 426 kts | 221° |
| 2026-05-04 19:27 | 38.76606 | 24.61262 | 29107 ft | 423 kts | 221° |
| 2026-05-04 19:28 | 38.74371 | 24.58816 | 28596 ft | 420 kts | 221° |
| 2026-05-04 19:28 | 38.72147 | 24.56383 | 28096 ft | 418 kts | 221° |
| 2026-05-04 19:28 | 38.69944 | 24.53974 | 27610 ft | 415 kts | 221° |
| 2026-05-04 19:28 | 38.67741 | 24.51568 | 26784 ft | 421 kts | 221° |
| 2026-05-04 19:29 | 38.65468 | 24.49085 | 25680 ft | 434 kts | 221° |
| 2026-05-04 19:29 | 38.63147 | 24.46553 | 24820 ft | 441 kts | 221° |
| 2026-05-04 19:29 | 38.60814 | 24.44009 | 24189 ft | 440 kts | 221° |
| 2026-05-04 19:29 | 38.58517 | 24.41507 | 23625 ft | 438 kts | 222° |
| 2026-05-04 19:30 | 38.56203 | 24.38987 | 22975 ft | 435 kts | 222° |
| 2026-05-04 19:30 | 38.53910 | 24.36493 | 22387 ft | 431 kts | 221° |
| 2026-05-04 19:30 | 38.51636 | 24.34019 | 21842 ft | 427 kts | 221° |
| 2026-05-04 19:30 | 38.49381 | 24.31568 | 21321 ft | 423 kts | 222° |
| 2026-05-04 19:31 | 38.47149 | 24.29144 | 20827 ft | 419 kts | 222° |
| 2026-05-04 19:31 | 38.44934 | 24.26738 | 20333 ft | 416 kts | 222° |
| 2026-05-04 19:31 | 38.42729 | 24.24346 | 19855 ft | 413 kts | 222° |
| 2026-05-04 19:31 | 38.40564 | 24.21997 | 19093 ft | 418 kts | 222° |
| 2026-05-04 19:32 | 38.38315 | 24.19559 | 18213 ft | 425 kts | 222° |
| 2026-05-04 19:32 | 38.36061 | 24.17117 | 17514 ft | 425 kts | 222° |
| 2026-05-04 19:32 | 38.33812 | 24.14681 | 16913 ft | 422 kts | 222° |
| 2026-05-04 19:32 | 38.31577 | 24.12263 | 16358 ft | 419 kts | 222° |
| 2026-05-04 19:33 | 38.29357 | 24.09862 | 15783 ft | 416 kts | 222° |
| 2026-05-04 19:33 | 38.27182 | 24.07512 | 15213 ft | 413 kts | 222° |
| 2026-05-04 19:33 | 38.24997 | 24.05151 | 14633 ft | 410 kts | 221° |
| 2026-05-04 19:33 | 38.22821 | 24.02800 | 14066 ft | 408 kts | 222° |
| 2026-05-04 19:34 | 38.20666 | 24.00473 | 13447 ft | 405 kts | 222° |
| 2026-05-04 19:34 | 38.18547 | 23.98186 | 12855 ft | 401 kts | 222° |
| 2026-05-04 19:34 | 38.16432 | 23.95906 | 12265 ft | 397 kts | 222° |
| 2026-05-04 19:34 | 38.14337 | 23.93649 | 11680 ft | 393 kts | 222° |
| 2026-05-04 19:35 | 38.12262 | 23.91416 | 11188 ft | 384 kts | 223° |
| 2026-05-04 19:35 | 38.10286 | 23.89293 | 11043 ft | 360 kts | 223° |
| 2026-05-04 19:35 | 38.08419 | 23.87304 | 10927 ft | 339 kts | 221° |
| 2026-05-04 19:35 | 38.06429 | 23.85814 | 10643 ft | 328 kts | 205° |
| 2026-05-04 19:36 | 38.04444 | 23.84577 | 10355 ft | 312 kts | 218° |
| 2026-05-04 19:36 | 38.02758 | 23.82916 | 9973 ft | 303 kts | 223° |
| 2026-05-04 19:36 | 38.01150 | 23.81215 | 9219 ft | 299 kts | 223° |
| 2026-05-04 19:36 | 37.99564 | 23.79521 | 8470 ft | 297 kts | 223° |
| 2026-05-04 19:37 | 37.98518 | 23.78403 | 7981 ft | 296 kts | 223° |
| 2026-05-04 19:37 | 37.96941 | 23.76715 | 7271 ft | 294 kts | 223° |
| 2026-05-04 19:37 | 37.95384 | 23.75060 | 6740 ft | 285 kts | 221° |
| 2026-05-04 19:37 | 37.93204 | 23.73520 | 6499 ft | 266 kts | 194° |
| 2026-05-04 19:38 | 37.91984 | 23.73306 | 6277 ft | 260 kts | 176° |
| 2026-05-04 19:38 | 37.90256 | 23.73790 | 5865 ft | 252 kts | 153° |
| 2026-05-04 19:38 | 37.88717 | 23.74843 | 5344 ft | 251 kts | 146° |
| 2026-05-04 19:38 | 37.87243 | 23.75964 | 4860 ft | 247 kts | 145° |
| 2026-05-04 19:39 | 37.85809 | 23.77064 | 4341 ft | 235 kts | 146° |
| 2026-05-04 19:39 | 37.84470 | 23.78187 | 3610 ft | 227 kts | 135° |
| 2026-05-04 19:39 | 37.83648 | 23.79795 | 3001 ft | 212 kts | 110° |
| 2026-05-04 19:39 | 37.83327 | 23.81477 | 2821 ft | 183 kts | 83° |
| 2026-05-04 19:40 | 37.83591 | 23.82967 | 2539 ft | 169 kts | 64° |
| 2026-05-04 19:40 | 37.84178 | 23.84184 | 2337 ft | 162 kts | 47° |
| 2026-05-04 19:40 | 37.85020 | 23.85122 | 2126 ft | 161 kts | 34° |
| 2026-05-04 19:40 | 37.85917 | 23.85971 | 1916 ft | 162 kts | 35° |
| 2026-05-04 19:41 | 37.86808 | 23.86816 | 1690 ft | 156 kts | 34° |
| 2026-05-04 19:41 | 37.87668 | 23.87630 | 1489 ft | 153 kts | 35° |
| 2026-05-04 19:41 | 37.88517 | 23.88429 | 1294 ft | 151 kts | 35° |
| 2026-05-04 19:41 | 37.89351 | 23.89217 | 1075 ft | 151 kts | 36° |
| 2026-05-04 19:42 | 37.90187 | 23.90022 | 866 ft | 151 kts | 36° |
| 2026-05-04 19:42 | 37.91029 | 23.90815 | 669 ft | 150 kts | 35° |
| 2026-05-04 19:42 | 37.91861 | 23.91613 | 473 ft | 149 kts | 35° |
| 2026-05-04 19:42 | 37.92680 | 23.92401 | 314 ft | 149 kts | 35° |
| 2026-05-04 19:43 | 37.93430 | 23.93100 | 295 ft | 110 kts | 35° |
| 2026-05-04 19:43 | 37.93803 | 23.93464 | 295 ft | 34 kts | 38° |
| 2026-05-04 19:43 | 37.93928 | 23.93675 | 299 ft | 28 kts | 69° |
| 2026-05-04 19:43 | 37.93931 | 23.93811 | 300 ft | 10 kts | 139° |
| 2026-05-04 19:44 | 37.93866 | 23.93802 | 301 ft | 10 kts | 206° |
| 2026-05-04 19:44 | 37.93806 | 23.93744 | 299 ft | 12 kts | 218° |
| 2026-05-04 19:44 | 37.93726 | 23.93665 | 301 ft | 18 kts | 217° |
| 2026-05-04 19:44 | 37.93609 | 23.93554 | 301 ft | 24 kts | 216° |
| 2026-05-04 19:45 | 37.93486 | 23.93436 | 299 ft | 12 kts | 220° |
| 2026-05-04 19:45 | 37.93431 | 23.93440 | 301 ft | 11 kts | 135° |
| 2026-05-04 19:45 | 37.93372 | 23.93536 | 300 ft | 16 kts | 126° |
| 2026-05-04 19:45 | 37.93292 | 23.93671 | 301 ft | 22 kts | 127° |
| 2026-05-04 19:46 | 37.93188 | 23.93846 | 303 ft | 25 kts | 128° |
| 2026-05-04 19:46 | 37.93106 | 23.93981 | 303 ft | 14 kts | 127° |
| 2026-05-04 19:46 | 37.93047 | 23.94080 | 301 ft | 15 kts | 127° |
| 2026-05-04 19:46 | 37.93010 | 23.94152 | 303 ft | 7 kts | 100° |
| 2026-05-04 19:47 | 37.93036 | 23.94192 | 304 ft | 5 kts | 38° |
| 2026-05-04 19:47 | 37.93059 | 23.94215 | 304 ft | 3 kts | 37° |
| 2026-05-04 19:47 | 37.93071 | 23.94226 | 302 ft | 1 kts | 37° |
| 2026-05-04 19:47 | 37.93077 | 23.94232 | 302 ft | 1 kts | 37° |
| 2026-05-04 19:48 | 37.93078 | 23.94232 | 302 ft | 0 kts | 37° |